createdAt,value
2023-05-10T00:00:16.576Z,17.12
2023-05-10T00:04:29.801Z,17.02
2023-05-10T00:08:42.364Z,16.90
2023-05-10T00:12:54.767Z,16.70
2023-05-10T00:17:07.170Z,16.50
2023-05-10T00:21:19.512Z,16.42
2023-05-10T00:25:31.919Z,16.43
2023-05-10T00:29:45.805Z,16.34
2023-05-10T00:33:58.173Z,16.36
2023-05-10T00:38:10.341Z,16.34
2023-05-10T00:42:23.688Z,16.42
2023-05-10T00:46:38.315Z,16.41
2023-05-10T00:50:51.035Z,16.35
2023-05-10T00:55:05.442Z,16.25
2023-05-10T00:59:19.016Z,16.17
2023-05-10T01:03:32.128Z,15.95
2023-05-10T01:07:44.355Z,15.78
2023-05-10T01:11:57.823Z,15.68
2023-05-10T01:16:10.512Z,15.34
2023-05-10T01:20:24.449Z,15.25
2023-05-10T01:24:39.743Z,14.98
2023-05-10T01:29:30.653Z,14.68
2023-05-10T01:33:56.866Z,14.41
2023-05-10T01:38:15.028Z,14.31
2023-05-10T01:42:34.942Z,14.20
2023-05-10T01:46:54.205Z,14.19
2023-05-10T01:51:08.164Z,14.03
2023-05-10T01:55:22.848Z,14.03
2023-05-10T01:59:40.406Z,13.95
2023-05-10T02:03:54.317Z,14.15
2023-05-10T02:08:08.180Z,14.17
2023-05-10T02:12:25.572Z,14.32
2023-05-10T02:16:40.321Z,14.21
2023-05-10T02:20:55.173Z,14.07
2023-05-10T02:25:10.325Z,14.28
2023-05-10T02:29:24.953Z,14.22
2023-05-10T02:33:40.780Z,14.28
2023-05-10T02:37:54.915Z,14.08
2023-05-10T02:42:07.927Z,14.19
2023-05-10T02:46:21.286Z,14.41
2023-05-10T02:50:35.194Z,14.24
2023-05-10T02:54:52.281Z,14.33
2023-05-10T02:59:04.755Z,14.40
2023-05-10T03:03:17.400Z,14.29
2023-05-10T03:07:30.076Z,14.31
2023-05-10T03:12:25.045Z,14.26
2023-05-10T03:16:45.027Z,14.44
2023-05-10T03:21:06.531Z,14.26
2023-05-10T03:25:23.458Z,14.15
2023-05-10T03:29:38.354Z,14.42
2023-05-10T03:33:52.218Z,14.36
2023-05-10T03:38:09.929Z,14.45
2023-05-10T03:42:22.395Z,14.44
2023-05-10T03:46:34.918Z,14.62
2023-05-10T03:50:50.598Z,14.62
2023-05-10T03:55:04.943Z,14.68
2023-05-10T03:59:17.430Z,14.73
2023-05-10T04:03:29.947Z,14.78
2023-05-10T04:07:45.493Z,14.84
2023-05-10T04:11:57.826Z,14.87
2023-05-10T04:16:10.556Z,14.93
2023-05-10T04:20:22.945Z,14.93
2023-05-10T04:24:35.420Z,14.99
2023-05-10T04:28:47.979Z,15.01
2023-05-10T04:33:00.481Z,15.02
2023-05-10T04:37:13.019Z,15.04
2023-05-10T04:41:26.519Z,15.10
2023-05-10T04:45:38.875Z,15.13
2023-05-10T04:49:51.369Z,15.24
2023-05-10T04:54:06.381Z,15.29
2023-05-10T04:58:19.100Z,15.35
2023-05-10T05:02:32.020Z,15.44
2023-05-10T05:06:44.605Z,15.59
2023-05-10T05:10:57.063Z,15.72
2023-05-10T05:15:10.924Z,15.77
2023-05-10T05:19:23.962Z,15.89
2023-05-10T05:23:36.322Z,16.10
2023-05-10T05:27:48.772Z,16.29
2023-05-10T05:32:01.496Z,16.45
2023-05-10T05:36:14.065Z,16.68
2023-05-10T05:40:26.571Z,17.00
2023-05-10T05:44:39.575Z,17.12
2023-05-10T05:48:51.980Z,17.23
2023-05-10T05:53:04.505Z,17.45
2023-05-10T06:01:29.373Z,17.69
2023-05-10T06:05:41.724Z,17.55
2023-05-10T06:09:54.068Z,17.54
2023-05-10T06:14:08.331Z,17.59
2023-05-10T06:18:20.642Z,17.47
2023-05-10T06:22:33.105Z,18.03
2023-05-10T06:26:45.523Z,18.17
2023-05-10T06:30:57.916Z,18.19
2023-05-10T06:35:12.830Z,18.26
2023-05-10T06:39:25.337Z,18.38
2023-05-10T06:43:41.198Z,18.46
2023-05-10T06:47:54.744Z,19.09
2023-05-10T06:52:07.137Z,19.21
2023-05-10T06:56:19.479Z,19.91
2023-05-10T07:00:32.108Z,20.18
2023-05-10T07:04:44.592Z,20.59
2023-05-10T07:08:57.028Z,19.93
2023-05-10T07:13:09.516Z,20.18
2023-05-10T07:17:22.242Z,19.95
2023-05-10T07:21:34.758Z,20.51
2023-05-10T07:25:52.714Z,21.00
2023-05-10T07:30:05.552Z,20.42
2023-05-10T07:34:20.141Z,19.84
2023-05-10T07:38:32.486Z,20.52
2023-05-10T07:42:45.837Z,19.04
2023-05-10T07:46:58.238Z,19.24
2023-05-10T07:51:10.983Z,19.84
2023-05-10T07:55:32.668Z,20.81
2023-05-10T07:59:46.135Z,20.41
2023-05-10T08:03:58.529Z,21.09
2023-05-10T08:08:11.072Z,20.95
2023-05-10T08:12:23.555Z,21.52
2023-05-10T08:16:36.490Z,22.32
2023-05-10T08:20:50.255Z,23.46
2023-05-10T08:25:02.724Z,21.68
2023-05-10T08:29:15.957Z,22.94
2023-05-10T08:33:28.357Z,23.71
2023-05-10T08:37:40.933Z,23.70
2023-05-10T08:42:01.284Z,22.73
2023-05-10T08:46:21.350Z,21.99
2023-05-10T08:50:38.757Z,22.46
2023-05-10T08:54:51.447Z,23.21
2023-05-10T08:59:10.575Z,23.83
2023-05-10T09:03:23.038Z,24.60
2023-05-10T09:07:36.367Z,23.60
2023-05-10T09:11:49.533Z,24.31
2023-05-10T09:16:19.888Z,23.76
2023-05-10T09:20:34.016Z,24.39
2023-05-10T09:24:46.517Z,23.73
2023-05-10T09:29:00.866Z,24.01
2023-05-10T09:33:13.363Z,25.24
2023-05-10T09:37:31.380Z,23.06
2023-05-10T09:41:44.029Z,23.79
2023-05-10T09:45:57.105Z,25.12
2023-05-10T09:50:11.416Z,24.50
2023-05-10T09:54:25.078Z,23.91
2023-05-10T09:58:41.964Z,24.53
2023-05-10T10:03:00.361Z,24.44
2023-05-10T10:07:13.205Z,24.48
2023-05-10T10:11:25.898Z,25.06
2023-05-10T10:15:38.686Z,26.43
2023-05-10T10:19:51.406Z,26.07
2023-05-10T10:24:06.578Z,25.37
2023-05-10T10:28:48.566Z,26.02
2023-05-10T10:33:30.119Z,27.27
2023-05-10T10:37:46.025Z,26.79
2023-05-10T10:42:00.355Z,26.54
2023-05-10T10:46:18.707Z,25.04
2023-05-10T10:50:31.518Z,26.75
2023-05-10T10:54:53.337Z,27.78
2023-05-10T10:59:06.558Z,26.90
2023-05-10T11:03:22.357Z,25.77
2023-05-10T11:07:34.959Z,25.98
2023-05-10T11:11:53.460Z,25.86
2023-05-10T11:16:41.919Z,24.86
2023-05-10T11:20:59.081Z,25.47
2023-05-10T11:25:12.183Z,25.17
2023-05-10T11:29:27.519Z,23.93
2023-05-10T11:33:51.628Z,23.28
2023-05-10T11:38:06.677Z,22.70
2023-05-10T11:42:19.135Z,24.23
2023-05-10T11:46:31.514Z,24.78
2023-05-10T11:50:45.416Z,25.69
2023-05-10T11:54:59.485Z,25.52
2023-05-10T11:59:12.009Z,26.58
2023-05-10T12:03:24.498Z,25.15
2023-05-10T12:07:37.090Z,24.17
2023-05-10T12:11:49.463Z,24.83
2023-05-10T12:16:14.451Z,23.97
2023-05-10T12:20:29.238Z,24.59
2023-05-10T12:24:41.903Z,24.31
2023-05-10T12:29:13.279Z,24.54
2023-05-10T12:33:25.997Z,23.86
2023-05-10T12:37:40.348Z,23.35
2023-05-10T12:41:53.385Z,23.91
2023-05-10T12:46:10.344Z,24.10
2023-05-10T12:50:22.796Z,24.51
2023-05-10T12:54:36.889Z,23.52
2023-05-10T12:58:49.977Z,22.97
2023-05-10T13:03:02.441Z,22.82
2023-05-10T13:07:14.907Z,22.46
2023-05-10T13:11:27.572Z,22.72
2023-05-10T13:15:39.846Z,22.22
2023-05-10T13:19:52.164Z,22.31
2023-05-10T13:24:04.560Z,21.79
2023-05-10T13:28:16.941Z,22.00
2023-05-10T13:32:29.462Z,21.47
2023-05-10T13:36:42.385Z,21.21
2023-05-10T13:40:54.750Z,21.42
2023-05-10T13:45:07.629Z,21.05
2023-05-10T13:49:20.117Z,21.44
2023-05-10T13:53:32.469Z,21.48
2023-05-10T13:57:44.874Z,21.55
2023-05-10T14:01:57.257Z,20.79
2023-05-10T14:06:09.912Z,20.35
2023-05-10T14:10:22.308Z,20.27
2023-05-10T14:14:34.733Z,19.90
2023-05-10T14:18:47.643Z,19.96
2023-05-10T14:23:00.023Z,20.05
2023-05-10T14:27:13.078Z,20.08
2023-05-10T14:31:26.821Z,19.98
2023-05-10T14:35:39.303Z,19.54
2023-05-10T14:39:51.631Z,19.59
2023-05-10T14:44:04.723Z,19.58
2023-05-10T14:48:18.618Z,19.57
2023-05-10T14:52:32.214Z,19.54
2023-05-10T14:56:46.575Z,19.18
2023-05-10T15:00:58.967Z,19.24
2023-05-10T15:05:12.201Z,19.12
2023-05-10T15:09:25.012Z,19.16
2023-05-10T15:13:37.327Z,19.24
2023-05-10T15:17:49.942Z,18.93
2023-05-10T15:22:03.385Z,18.91
2023-05-10T15:26:15.946Z,18.82
2023-05-10T15:30:28.422Z,18.48
2023-05-10T15:34:40.753Z,17.52
2023-05-10T15:38:53.125Z,17.07
2023-05-10T15:43:06.542Z,16.98
2023-05-10T15:47:18.951Z,16.66
2023-05-10T15:51:31.283Z,16.68
2023-05-10T15:55:44.075Z,16.32
2023-05-10T15:59:56.663Z,16.30
2023-05-10T16:04:09.055Z,16.14
2023-05-10T16:08:22.786Z,16.14
2023-05-10T16:12:35.250Z,16.10
2023-05-10T16:16:47.919Z,15.91
2023-05-10T16:21:01.004Z,15.75
2023-05-10T16:25:13.747Z,15.71
2023-05-10T16:29:26.519Z,15.69
2023-05-10T16:33:39.344Z,15.72
2023-05-10T16:37:54.059Z,15.93
2023-05-10T16:42:06.504Z,15.88
2023-05-10T16:46:18.942Z,15.85
2023-05-10T16:50:31.446Z,15.83
2023-05-10T16:54:44.398Z,15.80
2023-05-10T16:58:56.961Z,15.81
2023-05-10T17:03:09.337Z,15.87
2023-05-10T17:07:23.012Z,15.89
2023-05-10T17:11:36.617Z,15.84
2023-05-10T17:15:50.251Z,15.78
2023-05-10T17:20:03.177Z,15.87
2023-05-10T17:24:15.961Z,15.70
2023-05-10T17:28:29.290Z,15.67
2023-05-10T17:32:41.927Z,15.62
2023-05-10T17:36:54.516Z,15.82
2023-05-10T17:41:07.778Z,15.91
2023-05-10T17:45:20.484Z,15.82
2023-05-10T17:49:34.731Z,15.58
2023-05-10T17:53:48.642Z,15.48
2023-05-10T17:58:01.248Z,15.53
2023-05-10T18:02:14.299Z,15.77
2023-05-10T18:06:27.168Z,15.84
2023-05-10T18:10:41.318Z,15.97
2023-05-10T18:14:54.170Z,15.83
2023-05-10T18:19:06.751Z,16.01
2023-05-10T18:23:19.197Z,16.04
2023-05-10T18:27:32.206Z,16.06
2023-05-10T18:31:44.801Z,16.04
2023-05-10T18:35:57.382Z,15.74
2023-05-10T18:40:12.899Z,15.74
2023-05-10T18:44:27.063Z,15.58
2023-05-10T18:48:41.208Z,15.48
2023-05-10T18:52:53.877Z,15.51
2023-05-10T18:57:06.350Z,15.33
2023-05-10T19:01:18.850Z,15.55
2023-05-10T19:05:32.486Z,15.56
2023-05-10T19:09:45.022Z,15.64
2023-05-10T19:13:57.322Z,15.74
2023-05-10T19:18:09.996Z,15.70
2023-05-10T19:22:35.977Z,15.64
2023-05-10T19:26:56.559Z,15.45
2023-05-10T19:31:09.072Z,15.46
2023-05-10T19:35:21.934Z,15.43
2023-05-10T19:39:34.275Z,15.39
2023-05-10T19:43:46.841Z,15.33
2023-05-10T19:47:59.826Z,15.21
2023-05-10T19:52:12.502Z,15.20
2023-05-10T19:56:25.212Z,15.49
2023-05-10T20:00:38.152Z,15.14
2023-05-10T20:04:50.589Z,15.36
2023-05-10T20:09:03.017Z,15.14
2023-05-10T20:13:16.390Z,15.10
2023-05-10T20:17:28.795Z,15.10
2023-05-10T20:21:41.195Z,15.09
2023-05-10T20:25:55.058Z,14.81
2023-05-10T20:30:07.966Z,14.79
2023-05-10T20:34:20.507Z,15.03
2023-05-10T20:38:33.116Z,14.88
2023-05-10T20:42:45.521Z,14.87
2023-05-10T20:46:57.943Z,14.83
2023-05-10T20:51:10.387Z,14.82
2023-05-10T20:55:22.915Z,15.00
2023-05-10T20:59:35.369Z,15.10
2023-05-10T21:03:47.856Z,14.95
2023-05-10T21:08:00.270Z,14.92
2023-05-10T21:12:13.470Z,14.91
2023-05-10T21:16:26.314Z,14.94
2023-05-10T21:20:38.926Z,14.76
2023-05-10T21:24:51.440Z,14.39
2023-05-10T21:29:05.013Z,14.21
2023-05-10T21:33:17.669Z,14.12
2023-05-10T21:37:30.149Z,14.23
2023-05-10T21:41:43.982Z,14.37
2023-05-10T21:45:56.431Z,14.56
2023-05-10T21:50:12.320Z,14.36
2023-05-10T21:54:24.798Z,14.46
2023-05-10T21:58:37.185Z,14.50
2023-05-10T22:02:49.659Z,14.64
2023-05-10T22:07:02.036Z,14.58
2023-05-10T22:11:14.475Z,14.31
2023-05-10T22:15:27.416Z,14.37
2023-05-10T22:19:39.912Z,14.31
2023-05-10T22:23:52.177Z,14.28
2023-05-10T22:28:05.059Z,14.30
2023-05-10T22:32:17.622Z,14.30
2023-05-10T22:36:30.902Z,14.14
2023-05-10T22:40:43.391Z,14.34
2023-05-10T22:44:56.112Z,14.49
2023-05-10T22:49:08.605Z,14.45
2023-05-10T22:53:21.318Z,14.19
2023-05-10T22:57:34.283Z,14.33
2023-05-10T23:01:46.670Z,14.21
2023-05-10T23:05:59.148Z,14.05
2023-05-10T23:10:11.822Z,14.17
2023-05-10T23:14:24.525Z,14.00
2023-05-10T23:18:37.045Z,14.14
2023-05-10T23:22:49.822Z,14.16
2023-05-10T23:27:02.785Z,14.23
2023-05-10T23:31:15.324Z,14.16
2023-05-10T23:35:27.704Z,14.04
2023-05-10T23:39:40.397Z,14.45
2023-05-10T23:43:52.770Z,14.19
2023-05-10T23:48:05.312Z,14.49
2023-05-10T23:52:18.069Z,14.54
2023-05-10T23:56:30.333Z,14.56
